sensor_id;sensor_type;location;lat;lon;timestamp;P1;durP1;ratioP1;P2;durP2;ratioP2
63555;SDS011;49700;48.072;7.800;2023-05-14T00:01:40;6.10;;;5.07;;
63555;SDS011;49700;48.072;7.800;2023-05-14T00:04:06;5.67;;;4.80;;
63555;SDS011;49700;48.072;7.800;2023-05-14T00:06:31;8.77;;;5.30;;
63555;SDS011;49700;48.072;7.800;2023-05-14T00:08:57;5.07;;;4.03;;
63555;SDS011;49700;48.072;7.800;2023-05-14T00:11:22;6.47;;;5.23;;
63555;SDS011;49700;48.072;7.800;2023-05-14T00:13:48;5.40;;;4.80;;
63555;SDS011;49700;48.072;7.800;2023-05-14T00:16:14;5.63;;;4.80;;
63555;SDS011;49700;48.072;7.800;2023-05-14T00:18:40;4.20;;;3.83;;
63555;SDS011;49700;48.072;7.800;2023-05-14T00:21:05;6.10;;;4.67;;
63555;SDS011;49700;48.072;7.800;2023-05-14T00:23:31;7.10;;;6.03;;
63555;SDS011;49700;48.072;7.800;2023-05-14T00:25:56;8.40;;;4.73;;
63555;SDS011;49700;48.072;7.800;2023-05-14T00:28:21;4.40;;;4.00;;
63555;SDS011;49700;48.072;7.800;2023-05-14T00:30:47;6.33;;;5.40;;
63555;SDS011;49700;48.072;7.800;2023-05-14T00:33:14;5.18;;;4.68;;
63555;SDS011;49700;48.072;7.800;2023-05-14T00:35:39;7.87;;;5.20;;
63555;SDS011;49700;48.072;7.800;2023-05-14T00:38:04;5.50;;;4.33;;
63555;SDS011;49700;48.072;7.800;2023-05-14T00:40:30;5.93;;;4.60;;
63555;SDS011;49700;48.072;7.800;2023-05-14T00:42:55;4.63;;;4.23;;
63555;SDS011;49700;48.072;7.800;2023-05-14T00:45:21;6.63;;;5.27;;
63555;SDS011;49700;48.072;7.800;2023-05-14T00:47:47;5.60;;;3.90;;
63555;SDS011;49700;48.072;7.800;2023-05-14T00:50:13;5.63;;;4.68;;
63555;SDS011;49700;48.072;7.800;2023-05-14T00:52:40;4.10;;;3.70;;
63555;SDS011;49700;48.072;7.800;2023-05-14T00:55:06;7.10;;;5.70;;
63555;SDS011;49700;48.072;7.800;2023-05-14T00:57:32;5.38;;;4.65;;
63555;SDS011;49700;48.072;7.800;2023-05-14T00:59:59;5.47;;;5.07;;
63555;SDS011;49700;48.072;7.800;2023-05-14T01:02:25;5.70;;;5.05;;
63555;SDS011;49700;48.072;7.800;2023-05-14T01:04:50;5.67;;;4.70;;
63555;SDS011;49700;48.072;7.800;2023-05-14T01:07:21;5.63;;;5.13;;
63555;SDS011;49700;48.072;7.800;2023-05-14T01:13:03;6.03;;;4.30;;
63555;SDS011;49700;48.072;7.800;2023-05-14T01:15:38;5.40;;;4.40;;
63555;SDS011;49700;48.072;7.800;2023-05-14T01:18:08;4.40;;;4.00;;
63555;SDS011;49700;48.072;7.800;2023-05-14T01:20:35;6.60;;;4.38;;
63555;SDS011;49700;48.072;7.800;2023-05-14T01:23:01;5.17;;;4.10;;
63555;SDS011;49700;48.072;7.800;2023-05-14T01:25:27;4.45;;;4.03;;
63555;SDS011;49700;48.072;7.800;2023-05-14T01:28:02;6.88;;;5.93;;
63555;SDS011;49700;48.072;7.800;2023-05-14T01:30:36;4.63;;;4.22;;
63555;SDS011;49700;48.072;7.800;2023-05-14T01:33:09;5.65;;;4.03;;
63555;SDS011;49700;48.072;7.800;2023-05-14T01:35:37;5.95;;;5.05;;
63555;SDS011;49700;48.072;7.800;2023-05-14T01:38:03;8.13;;;5.40;;
63555;SDS011;49700;48.072;7.800;2023-05-14T01:40:31;8.52;;;4.75;;
63555;SDS011;49700;48.072;7.800;2023-05-14T01:42:58;6.07;;;4.75;;
63555;SDS011;49700;48.072;7.800;2023-05-14T01:45:24;5.05;;;4.55;;
63555;SDS011;49700;48.072;7.800;2023-05-14T01:47:50;6.43;;;5.30;;
63555;SDS011;49700;48.072;7.800;2023-05-14T01:50:16;6.13;;;4.70;;
63555;SDS011;49700;48.072;7.800;2023-05-14T01:52:41;4.93;;;4.33;;
63555;SDS011;49700;48.072;7.800;2023-05-14T01:55:07;5.33;;;4.80;;
63555;SDS011;49700;48.072;7.800;2023-05-14T01:57:33;7.50;;;6.70;;
63555;SDS011;49700;48.072;7.800;2023-05-14T01:59:58;6.70;;;5.30;;
63555;SDS011;49700;48.072;7.800;2023-05-14T02:02:23;6.43;;;4.80;;
63555;SDS011;49700;48.072;7.800;2023-05-14T02:04:49;6.50;;;5.22;;
63555;SDS011;49700;48.072;7.800;2023-05-14T02:07:14;6.40;;;5.33;;
63555;SDS011;49700;48.072;7.800;2023-05-14T02:09:39;6.10;;;5.50;;
63555;SDS011;49700;48.072;7.800;2023-05-14T02:12:06;6.20;;;4.80;;
63555;SDS011;49700;48.072;7.800;2023-05-14T02:14:33;5.63;;;5.13;;
63555;SDS011;49700;48.072;7.800;2023-05-14T02:16:58;8.03;;;5.10;;
63555;SDS011;49700;48.072;7.800;2023-05-14T02:19:23;5.83;;;4.80;;
63555;SDS011;49700;48.072;7.800;2023-05-14T02:21:49;4.50;;;4.10;;
63555;SDS011;49700;48.072;7.800;2023-05-14T02:24:14;6.10;;;4.80;;
63555;SDS011;49700;48.072;7.800;2023-05-14T02:26:40;4.90;;;4.43;;
63555;SDS011;49700;48.072;7.800;2023-05-14T02:29:06;5.70;;;4.50;;
63555;SDS011;49700;48.072;7.800;2023-05-14T02:31:32;5.30;;;4.53;;
63555;SDS011;49700;48.072;7.800;2023-05-14T02:33:57;6.77;;;6.17;;
63555;SDS011;49700;48.072;7.800;2023-05-14T02:36:23;6.00;;;5.40;;
63555;SDS011;49700;48.072;7.800;2023-05-14T02:38:48;5.00;;;4.50;;
63555;SDS011;49700;48.072;7.800;2023-05-14T02:41:13;6.00;;;5.40;;
63555;SDS011;49700;48.072;7.800;2023-05-14T02:43:39;5.83;;;5.00;;
63555;SDS011;49700;48.072;7.800;2023-05-14T02:46:06;4.57;;;4.15;;
63555;SDS011;49700;48.072;7.800;2023-05-14T02:48:32;6.63;;;5.37;;
63555;SDS011;49700;48.072;7.800;2023-05-14T02:50:57;5.90;;;5.30;;
63555;SDS011;49700;48.072;7.800;2023-05-14T02:53:22;6.60;;;4.00;;
63555;SDS011;49700;48.072;7.800;2023-05-14T02:55:48;4.77;;;4.33;;
63555;SDS011;49700;48.072;7.800;2023-05-14T02:58:13;4.37;;;3.80;;
63555;SDS011;49700;48.072;7.800;2023-05-14T03:00:39;4.80;;;4.20;;
63555;SDS011;49700;48.072;7.800;2023-05-14T03:03:04;6.60;;;4.83;;
63555;SDS011;49700;48.072;7.800;2023-05-14T03:05:30;6.63;;;5.80;;
63555;SDS011;49700;48.072;7.800;2023-05-14T03:07:55;5.53;;;4.90;;
63555;SDS011;49700;48.072;7.800;2023-05-14T03:10:20;6.97;;;5.40;;
63555;SDS011;49700;48.072;7.800;2023-05-14T03:12:46;6.37;;;4.87;;
63555;SDS011;49700;48.072;7.800;2023-05-14T03:15:11;7.47;;;5.77;;
63555;SDS011;49700;48.072;7.800;2023-05-14T03:17:37;6.30;;;4.83;;
63555;SDS011;49700;48.072;7.800;2023-05-14T03:20:02;5.47;;;4.40;;
63555;SDS011;49700;48.072;7.800;2023-05-14T03:22:28;6.63;;;4.80;;
63555;SDS011;49700;48.072;7.800;2023-05-14T03:24:53;5.87;;;4.97;;
63555;SDS011;49700;48.072;7.800;2023-05-14T03:27:19;7.13;;;4.53;;
63555;SDS011;49700;48.072;7.800;2023-05-14T03:29:44;5.10;;;4.43;;
63555;SDS011;49700;48.072;7.800;2023-05-14T03:32:10;5.63;;;4.90;;
63555;SDS011;49700;48.072;7.800;2023-05-14T03:34:35;7.00;;;5.40;;
63555;SDS011;49700;48.072;7.800;2023-05-14T03:37:01;6.17;;;5.57;;
63555;SDS011;49700;48.072;7.800;2023-05-14T03:39:26;6.20;;;4.90;;
63555;SDS011;49700;48.072;7.800;2023-05-14T03:41:52;6.30;;;5.13;;
63555;SDS011;49700;48.072;7.800;2023-05-14T03:44:17;5.23;;;4.50;;
63555;SDS011;49700;48.072;7.800;2023-05-14T03:46:43;6.60;;;4.83;;
63555;SDS011;49700;48.072;7.800;2023-05-14T03:49:08;8.27;;;5.80;;
63555;SDS011;49700;48.072;7.800;2023-05-14T03:51:34;7.83;;;4.83;;
63555;SDS011;49700;48.072;7.800;2023-05-14T03:53:59;6.27;;;4.43;;
63555;SDS011;49700;48.072;7.800;2023-05-14T03:56:25;6.22;;;5.55;;
63555;SDS011;49700;48.072;7.800;2023-05-14T03:58:51;6.50;;;4.93;;
63555;SDS011;49700;48.072;7.800;2023-05-14T04:01:17;6.80;;;4.90;;
63555;SDS011;49700;48.072;7.800;2023-05-14T04:03:42;6.73;;;6.03;;
63555;SDS011;49700;48.072;7.800;2023-05-14T04:06:08;6.33;;;5.73;;
63555;SDS011;49700;48.072;7.800;2023-05-14T04:08:33;5.73;;;5.00;;
63555;SDS011;49700;48.072;7.800;2023-05-14T04:10:59;8.33;;;5.47;;
63555;SDS011;49700;48.072;7.800;2023-05-14T04:13:24;8.33;;;5.33;;
63555;SDS011;49700;48.072;7.800;2023-05-14T04:15:50;6.30;;;5.70;;
63555;SDS011;49700;48.072;7.800;2023-05-14T04:18:15;5.70;;;4.87;;
63555;SDS011;49700;48.072;7.800;2023-05-14T04:20:41;8.47;;;6.30;;
63555;SDS011;49700;48.072;7.800;2023-05-14T04:23:06;6.10;;;5.53;;
63555;SDS011;49700;48.072;7.800;2023-05-14T04:25:32;5.47;;;4.47;;
63555;SDS011;49700;48.072;7.800;2023-05-14T04:27:57;6.63;;;5.67;;
63555;SDS011;49700;48.072;7.800;2023-05-14T04:30:23;5.50;;;5.00;;
63555;SDS011;49700;48.072;7.800;2023-05-14T04:32:48;5.77;;;4.47;;
63555;SDS011;49700;48.072;7.800;2023-05-14T04:35:14;6.27;;;5.40;;
63555;SDS011;49700;48.072;7.800;2023-05-14T04:37:39;4.60;;;4.20;;
63555;SDS011;49700;48.072;7.800;2023-05-14T04:40:05;7.00;;;5.20;;
63555;SDS011;49700;48.072;7.800;2023-05-14T04:42:32;5.72;;;4.80;;
63555;SDS011;49700;48.072;7.800;2023-05-14T04:44:58;11.60;;;6.13;;
63555;SDS011;49700;48.072;7.800;2023-05-14T04:47:23;6.97;;;6.03;;
63555;SDS011;49700;48.072;7.800;2023-05-14T04:49:49;6.53;;;5.50;;
63555;SDS011;49700;48.072;7.800;2023-05-14T04:52:14;6.50;;;5.37;;
63555;SDS011;49700;48.072;7.800;2023-05-14T04:54:40;6.23;;;5.63;;
63555;SDS011;49700;48.072;7.800;2023-05-14T04:57:05;8.13;;;5.10;;
63555;SDS011;49700;48.072;7.800;2023-05-14T04:59:31;6.20;;;5.47;;
63555;SDS011;49700;48.072;7.800;2023-05-14T05:01:56;7.20;;;6.50;;
63555;SDS011;49700;48.072;7.800;2023-05-14T05:04:22;7.90;;;6.17;;
63555;SDS011;49700;48.072;7.800;2023-05-14T05:06:48;6.13;;;5.50;;
63555;SDS011;49700;48.072;7.800;2023-05-14T05:09:14;7.38;;;6.63;;
63555;SDS011;49700;48.072;7.800;2023-05-14T05:11:40;8.77;;;6.40;;
63555;SDS011;49700;48.072;7.800;2023-05-14T05:14:05;7.40;;;5.90;;
63555;SDS011;49700;48.072;7.800;2023-05-14T05:16:31;6.47;;;5.30;;
63555;SDS011;49700;48.072;7.800;2023-05-14T05:18:56;6.57;;;5.10;;
63555;SDS011;49700;48.072;7.800;2023-05-14T05:21:22;7.03;;;5.47;;
63555;SDS011;49700;48.072;7.800;2023-05-14T05:23:47;10.83;;;5.40;;
63555;SDS011;49700;48.072;7.800;2023-05-14T05:26:12;6.73;;;6.13;;
63555;SDS011;49700;48.072;7.800;2023-05-14T05:28:38;6.50;;;5.90;;
63555;SDS011;49700;48.072;7.800;2023-05-14T05:31:03;6.20;;;5.60;;
63555;SDS011;49700;48.072;7.800;2023-05-14T05:33:29;6.53;;;5.33;;
63555;SDS011;49700;48.072;7.800;2023-05-14T05:35:55;9.10;;;6.22;;
63555;SDS011;49700;48.072;7.800;2023-05-14T05:38:20;8.13;;;5.50;;
63555;SDS011;49700;48.072;7.800;2023-05-14T05:40:46;6.37;;;5.60;;
63555;SDS011;49700;48.072;7.800;2023-05-14T05:43:12;6.45;;;5.60;;
63555;SDS011;49700;48.072;7.800;2023-05-14T05:45:38;7.00;;;5.95;;
63555;SDS011;49700;48.072;7.800;2023-05-14T05:48:04;5.77;;;5.17;;
63555;SDS011;49700;48.072;7.800;2023-05-14T05:50:29;6.00;;;5.40;;
63555;SDS011;49700;48.072;7.800;2023-05-14T05:52:55;7.18;;;5.75;;
63555;SDS011;49700;48.072;7.800;2023-05-14T05:55:23;5.75;;;5.25;;
63555;SDS011;49700;48.072;7.800;2023-05-14T05:57:49;6.57;;;5.60;;
63555;SDS011;49700;48.072;7.800;2023-05-14T06:00:14;9.67;;;7.10;;
63555;SDS011;49700;48.072;7.800;2023-05-14T06:02:41;8.70;;;7.13;;
63555;SDS011;49700;48.072;7.800;2023-05-14T06:05:07;5.65;;;5.13;;
63555;SDS011;49700;48.072;7.800;2023-05-14T06:07:34;9.05;;;6.40;;
63555;SDS011;49700;48.072;7.800;2023-05-14T06:09:59;9.47;;;8.57;;
63555;SDS011;49700;48.072;7.800;2023-05-14T06:12:25;8.33;;;7.10;;
63555;SDS011;49700;48.072;7.800;2023-05-14T06:14:52;8.27;;;6.63;;
63555;SDS011;49700;48.072;7.800;2023-05-14T06:17:19;10.45;;;9.35;;
63555;SDS011;49700;48.072;7.800;2023-05-14T06:19:45;7.73;;;6.80;;
63555;SDS011;49700;48.072;7.800;2023-05-14T06:22:11;9.85;;;8.05;;
63555;SDS011;49700;48.072;7.800;2023-05-14T06:24:38;9.75;;;8.18;;
63555;SDS011;49700;48.072;7.800;2023-05-14T06:27:04;9.53;;;7.40;;
63555;SDS011;49700;48.072;7.800;2023-05-14T06:29:29;17.43;;;7.77;;
63555;SDS011;49700;48.072;7.800;2023-05-14T06:31:59;8.20;;;7.00;;
63555;SDS011;49700;48.072;7.800;2023-05-14T06:34:25;8.25;;;7.32;;
63555;SDS011;49700;48.072;7.800;2023-05-14T06:36:50;8.80;;;7.50;;
63555;SDS011;49700;48.072;7.800;2023-05-14T06:39:16;7.67;;;6.90;;
63555;SDS011;49700;48.072;7.800;2023-05-14T06:41:41;9.30;;;8.03;;
63555;SDS011;49700;48.072;7.800;2023-05-14T06:44:12;8.10;;;7.30;;
63555;SDS011;49700;48.072;7.800;2023-05-14T06:46:38;9.03;;;6.30;;
63555;SDS011;49700;48.072;7.800;2023-05-14T06:49:03;9.77;;;7.63;;
63555;SDS011;49700;48.072;7.800;2023-05-14T06:51:29;6.73;;;6.03;;
63555;SDS011;49700;48.072;7.800;2023-05-14T06:53:54;6.20;;;5.60;;
63555;SDS011;49700;48.072;7.800;2023-05-14T06:56:20;9.00;;;6.17;;
63555;SDS011;49700;48.072;7.800;2023-05-14T06:58:46;9.00;;;6.55;;
63555;SDS011;49700;48.072;7.800;2023-05-14T07:01:12;6.57;;;5.97;;
63555;SDS011;49700;48.072;7.800;2023-05-14T07:03:37;8.90;;;6.70;;
63555;SDS011;49700;48.072;7.800;2023-05-14T07:06:03;8.00;;;7.20;;
63555;SDS011;49700;48.072;7.800;2023-05-14T07:08:28;9.70;;;6.87;;
63555;SDS011;49700;48.072;7.800;2023-05-14T07:10:54;7.77;;;5.60;;
63555;SDS011;49700;48.072;7.800;2023-05-14T07:13:20;9.15;;;6.70;;
63555;SDS011;49700;48.072;7.800;2023-05-14T07:15:45;10.80;;;8.37;;
63555;SDS011;49700;48.072;7.800;2023-05-14T07:18:11;7.60;;;6.80;;
63555;SDS011;49700;48.072;7.800;2023-05-14T07:20:36;7.70;;;6.47;;
63555;SDS011;49700;48.072;7.800;2023-05-14T07:23:01;8.23;;;6.93;;
63555;SDS011;49700;48.072;7.800;2023-05-14T07:25:27;10.13;;;6.63;;
63555;SDS011;49700;48.072;7.800;2023-05-14T07:27:52;10.30;;;7.60;;
63555;SDS011;49700;48.072;7.800;2023-05-14T07:30:18;8.97;;;8.07;;
63555;SDS011;49700;48.072;7.800;2023-05-14T07:32:43;8.90;;;7.47;;
63555;SDS011;49700;48.072;7.800;2023-05-14T07:35:09;9.53;;;7.80;;
63555;SDS011;49700;48.072;7.800;2023-05-14T07:37:35;8.63;;;7.73;;
63555;SDS011;49700;48.072;7.800;2023-05-14T07:40:01;9.93;;;7.88;;
63555;SDS011;49700;48.072;7.800;2023-05-14T07:42:27;8.03;;;7.10;;
63555;SDS011;49700;48.072;7.800;2023-05-14T07:44:52;8.10;;;7.30;;
63555;SDS011;49700;48.072;7.800;2023-05-14T07:47:18;8.10;;;7.30;;
63555;SDS011;49700;48.072;7.800;2023-05-14T07:49:43;8.80;;;7.27;;
63555;SDS011;49700;48.072;7.800;2023-05-14T07:52:08;9.07;;;8.17;;
63555;SDS011;49700;48.072;7.800;2023-05-14T07:54:34;9.13;;;8.23;;
63555;SDS011;49700;48.072;7.800;2023-05-14T07:56:59;10.07;;;9.17;;
63555;SDS011;49700;48.072;7.800;2023-05-14T07:59:24;11.40;;;7.93;;
63555;SDS011;49700;48.072;7.800;2023-05-14T08:01:50;11.73;;;8.83;;
63555;SDS011;49700;48.072;7.800;2023-05-14T08:04:15;10.40;;;9.40;;
63555;SDS011;49700;48.072;7.800;2023-05-14T08:06:42;10.93;;;8.25;;
63555;SDS011;49700;48.072;7.800;2023-05-14T08:09:07;11.07;;;9.77;;
63555;SDS011;49700;48.072;7.800;2023-05-14T08:11:33;11.75;;;9.30;;
63555;SDS011;49700;48.072;7.800;2023-05-14T08:13:59;14.47;;;10.20;;
63555;SDS011;49700;48.072;7.800;2023-05-14T08:16:24;10.23;;;9.23;;
63555;SDS011;49700;48.072;7.800;2023-05-14T08:18:50;10.90;;;9.80;;
63555;SDS011;49700;48.072;7.800;2023-05-14T08:21:15;10.37;;;9.27;;
63555;SDS011;49700;48.072;7.800;2023-05-14T08:23:41;9.70;;;8.77;;
63555;SDS011;49700;48.072;7.800;2023-05-14T08:26:06;11.93;;;9.73;;
63555;SDS011;49700;48.072;7.800;2023-05-14T08:28:35;10.43;;;8.80;;
63555;SDS011;49700;48.072;7.800;2023-05-14T08:31:00;11.67;;;9.60;;
63555;SDS011;49700;48.072;7.800;2023-05-14T08:33:26;10.50;;;9.37;;
63555;SDS011;49700;48.072;7.800;2023-05-14T08:35:51;13.00;;;10.10;;
63555;SDS011;49700;48.072;7.800;2023-05-14T08:38:17;11.47;;;9.20;;
63555;SDS011;49700;48.072;7.800;2023-05-14T08:40:51;10.50;;;9.30;;
63555;SDS011;49700;48.072;7.800;2023-05-14T08:43:20;9.67;;;8.60;;
63555;SDS011;49700;48.072;7.800;2023-05-14T08:45:56;9.23;;;8.20;;
63555;SDS011;49700;48.072;7.800;2023-05-14T08:48:25;9.50;;;8.60;;
63555;SDS011;49700;48.072;7.800;2023-05-14T08:50:56;9.07;;;8.17;;
63555;SDS011;49700;48.072;7.800;2023-05-14T08:53:23;11.50;;;8.77;;
63555;SDS011;49700;48.072;7.800;2023-05-14T08:55:49;8.50;;;7.70;;
63555;SDS011;49700;48.072;7.800;2023-05-14T08:58:15;8.80;;;7.90;;
63555;SDS011;49700;48.072;7.800;2023-05-14T09:00:41;10.53;;;8.87;;
63555;SDS011;49700;48.072;7.800;2023-05-14T09:03:10;8.97;;;8.17;;
63555;SDS011;49700;48.072;7.800;2023-05-14T09:05:38;7.97;;;7.18;;
63555;SDS011;49700;48.072;7.800;2023-05-14T09:08:04;8.50;;;7.70;;
63555;SDS011;49700;48.072;7.800;2023-05-14T09:10:30;9.00;;;7.77;;
63555;SDS011;49700;48.072;7.800;2023-05-14T09:12:56;9.20;;;7.07;;
63555;SDS011;49700;48.072;7.800;2023-05-14T09:15:22;7.03;;;6.43;;
63555;SDS011;49700;48.072;7.800;2023-05-14T09:17:48;8.90;;;6.43;;
63555;SDS011;49700;48.072;7.800;2023-05-14T09:20:14;6.50;;;5.83;;
63555;SDS011;49700;48.072;7.800;2023-05-14T09:22:40;7.20;;;6.37;;
63555;SDS011;49700;48.072;7.800;2023-05-14T09:25:07;7.80;;;7.00;;
63555;SDS011;49700;48.072;7.800;2023-05-14T09:27:35;7.73;;;7.00;;
63555;SDS011;49700;48.072;7.800;2023-05-14T09:30:18;7.67;;;6.80;;
63555;SDS011;49700;48.072;7.800;2023-05-14T09:32:44;8.20;;;6.40;;
63555;SDS011;49700;48.072;7.800;2023-05-14T09:35:18;7.45;;;6.65;;
63555;SDS011;49700;48.072;7.800;2023-05-14T09:37:46;6.90;;;6.30;;
63555;SDS011;49700;48.072;7.800;2023-05-14T09:40:13;7.73;;;7.00;;
63555;SDS011;49700;48.072;7.800;2023-05-14T09:42:39;8.30;;;6.00;;
63555;SDS011;49700;48.072;7.800;2023-05-14T09:45:06;5.30;;;4.80;;
63555;SDS011;49700;48.072;7.800;2023-05-14T09:47:32;7.53;;;6.77;;
63555;SDS011;49700;48.072;7.800;2023-05-14T09:49:58;7.17;;;6.47;;
63555;SDS011;49700;48.072;7.800;2023-05-14T09:52:23;6.03;;;5.53;;
63555;SDS011;49700;48.072;7.800;2023-05-14T09:54:50;6.00;;;5.50;;
63555;SDS011;49700;48.072;7.800;2023-05-14T09:57:16;6.17;;;5.77;;
63555;SDS011;49700;48.072;7.800;2023-05-14T09:59:42;5.40;;;4.90;;
63555;SDS011;49700;48.072;7.800;2023-05-14T10:02:09;6.07;;;5.47;;
63555;SDS011;49700;48.072;7.800;2023-05-14T10:04:49;6.22;;;5.63;;
63555;SDS011;49700;48.072;7.800;2023-05-14T10:07:18;6.37;;;5.63;;
63555;SDS011;49700;48.072;7.800;2023-05-14T10:09:47;4.70;;;4.17;;
63555;SDS011;49700;48.072;7.800;2023-05-14T10:12:13;6.07;;;4.50;;
63555;SDS011;49700;48.072;7.800;2023-05-14T10:14:46;5.30;;;4.80;;
63555;SDS011;49700;48.072;7.800;2023-05-14T10:17:13;5.23;;;4.77;;
63555;SDS011;49700;48.072;7.800;2023-05-14T10:19:44;6.00;;;4.70;;
63555;SDS011;49700;48.072;7.800;2023-05-14T10:22:14;5.30;;;4.17;;
63555;SDS011;49700;48.072;7.800;2023-05-14T10:24:42;5.20;;;4.80;;
63555;SDS011;49700;48.072;7.800;2023-05-14T10:27:10;5.57;;;4.43;;
63555;SDS011;49700;48.072;7.800;2023-05-14T10:29:36;12.33;;;5.57;;
63555;SDS011;49700;48.072;7.800;2023-05-14T10:32:06;5.10;;;4.60;;
63555;SDS011;49700;48.072;7.800;2023-05-14T10:34:36;5.00;;;4.60;;
63555;SDS011;49700;48.072;7.800;2023-05-14T10:37:17;4.40;;;3.90;;
63555;SDS011;49700;48.072;7.800;2023-05-14T10:39:46;4.03;;;3.73;;
63555;SDS011;49700;48.072;7.800;2023-05-14T10:44:47;4.53;;;4.13;;
63555;SDS011;49700;48.072;7.800;2023-05-14T10:47:15;5.27;;;4.40;;
63555;SDS011;49700;48.072;7.800;2023-05-14T10:49:42;5.97;;;4.30;;
63555;SDS011;49700;48.072;7.800;2023-05-14T10:52:10;4.93;;;4.43;;
63555;SDS011;49700;48.072;7.800;2023-05-14T10:54:36;4.90;;;3.57;;
63555;SDS011;49700;48.072;7.800;2023-05-14T10:57:02;3.63;;;3.33;;
63555;SDS011;49700;48.072;7.800;2023-05-14T10:59:27;5.10;;;4.60;;
63555;SDS011;49700;48.072;7.800;2023-05-14T11:01:53;4.17;;;3.87;;
63555;SDS011;49700;48.072;7.800;2023-05-14T11:04:24;4.60;;;4.20;;
63555;SDS011;49700;48.072;7.800;2023-05-14T11:06:51;4.00;;;3.60;;
63555;SDS011;49700;48.072;7.800;2023-05-14T11:09:17;4.10;;;3.80;;
63555;SDS011;49700;48.072;7.800;2023-05-14T11:11:45;3.53;;;3.23;;
63555;SDS011;49700;48.072;7.800;2023-05-14T11:14:11;3.30;;;3.00;;
63555;SDS011;49700;48.072;7.800;2023-05-14T11:16:37;2.77;;;2.57;;
63555;SDS011;49700;48.072;7.800;2023-05-14T11:19:03;4.10;;;3.70;;
63555;SDS011;49700;48.072;7.800;2023-05-14T11:21:29;4.57;;;4.17;;
63555;SDS011;49700;48.072;7.800;2023-05-14T11:23:56;4.27;;;3.97;;
63555;SDS011;49700;48.072;7.800;2023-05-14T11:26:23;4.70;;;3.20;;
63555;SDS011;49700;48.072;7.800;2023-05-14T11:28:48;3.37;;;3.07;;
63555;SDS011;49700;48.072;7.800;2023-05-14T11:31:14;3.37;;;3.00;;
63555;SDS011;49700;48.072;7.800;2023-05-14T11:33:40;4.00;;;3.60;;
63555;SDS011;49700;48.072;7.800;2023-05-14T11:36:06;3.73;;;3.43;;
63555;SDS011;49700;48.072;7.800;2023-05-14T11:38:31;3.67;;;3.37;;
63555;SDS011;49700;48.072;7.800;2023-05-14T11:40:57;4.50;;;4.20;;
63555;SDS011;49700;48.072;7.800;2023-05-14T11:43:23;4.30;;;3.90;;
63555;SDS011;49700;48.072;7.800;2023-05-14T11:45:52;4.50;;;3.93;;
63555;SDS011;49700;48.072;7.800;2023-05-14T11:48:19;9.20;;;5.13;;
63555;SDS011;49700;48.072;7.800;2023-05-14T11:50:50;3.90;;;3.53;;
63555;SDS011;49700;48.072;7.800;2023-05-14T11:53:17;4.23;;;3.93;;
63555;SDS011;49700;48.072;7.800;2023-05-14T11:55:49;3.67;;;3.37;;
63555;SDS011;49700;48.072;7.800;2023-05-14T11:58:18;4.70;;;3.60;;
63555;SDS011;49700;48.072;7.800;2023-05-14T12:00:44;3.97;;;3.67;;
63555;SDS011;49700;48.072;7.800;2023-05-14T12:03:09;4.63;;;3.50;;
63555;SDS011;49700;48.072;7.800;2023-05-14T12:05:38;4.80;;;4.30;;
63555;SDS011;49700;48.072;7.800;2023-05-14T12:08:18;4.40;;;2.93;;
63555;SDS011;49700;48.072;7.800;2023-05-14T12:10:47;3.03;;;2.60;;
63555;SDS011;49700;48.072;7.800;2023-05-14T12:13:14;3.27;;;2.70;;
63555;SDS011;49700;48.072;7.800;2023-05-14T12:15:43;3.33;;;3.03;;
63555;SDS011;49700;48.072;7.800;2023-05-14T12:18:09;3.63;;;3.10;;
63555;SDS011;49700;48.072;7.800;2023-05-14T12:20:35;3.30;;;3.00;;
63555;SDS011;49700;48.072;7.800;2023-05-14T12:23:00;3.93;;;3.60;;
63555;SDS011;49700;48.072;7.800;2023-05-14T12:25:25;3.87;;;3.00;;
63555;SDS011;49700;48.072;7.800;2023-05-14T12:27:51;4.97;;;3.30;;
63555;SDS011;49700;48.072;7.800;2023-05-14T12:30:16;3.30;;;3.00;;
63555;SDS011;49700;48.072;7.800;2023-05-14T12:32:42;3.80;;;3.50;;
63555;SDS011;49700;48.072;7.800;2023-05-14T12:35:07;3.57;;;3.27;;
63555;SDS011;49700;48.072;7.800;2023-05-14T12:37:33;3.70;;;3.40;;
63555;SDS011;49700;48.072;7.800;2023-05-14T12:40:00;3.50;;;3.20;;
63555;SDS011;49700;48.072;7.800;2023-05-14T12:42:26;4.63;;;3.83;;
63555;SDS011;49700;48.072;7.800;2023-05-14T12:44:51;3.03;;;2.77;;
63555;SDS011;49700;48.072;7.800;2023-05-14T12:47:16;4.10;;;3.53;;
63555;SDS011;49700;48.072;7.800;2023-05-14T12:49:42;4.00;;;3.60;;
63555;SDS011;49700;48.072;7.800;2023-05-14T12:52:07;3.70;;;3.40;;
63555;SDS011;49700;48.072;7.800;2023-05-14T12:54:33;3.60;;;3.30;;
63555;SDS011;49700;48.072;7.800;2023-05-14T12:56:58;4.63;;;2.77;;
63555;SDS011;49700;48.072;7.800;2023-05-14T12:59:23;4.20;;;2.93;;
63555;SDS011;49700;48.072;7.800;2023-05-14T13:01:49;3.10;;;2.63;;
63555;SDS011;49700;48.072;7.800;2023-05-14T13:04:14;3.30;;;3.00;;
63555;SDS011;49700;48.072;7.800;2023-05-14T13:06:40;3.60;;;2.90;;
63555;SDS011;49700;48.072;7.800;2023-05-14T13:09:05;3.20;;;2.90;;
63555;SDS011;49700;48.072;7.800;2023-05-14T13:11:32;5.07;;;3.30;;
63555;SDS011;49700;48.072;7.800;2023-05-14T13:13:58;3.00;;;2.40;;
63555;SDS011;49700;48.072;7.800;2023-05-14T13:16:27;2.40;;;2.20;;
63555;SDS011;49700;48.072;7.800;2023-05-14T13:18:53;2.80;;;2.30;;
63555;SDS011;49700;48.072;7.800;2023-05-14T13:21:19;2.83;;;2.50;;
63555;SDS011;49700;48.072;7.800;2023-05-14T13:23:45;3.10;;;2.77;;
63555;SDS011;49700;48.072;7.800;2023-05-14T13:26:11;2.10;;;1.90;;
63555;SDS011;49700;48.072;7.800;2023-05-14T13:28:36;2.40;;;2.20;;
63555;SDS011;49700;48.072;7.800;2023-05-14T13:31:11;2.40;;;1.93;;
63555;SDS011;49700;48.072;7.800;2023-05-14T13:33:40;2.10;;;1.83;;
63555;SDS011;49700;48.072;7.800;2023-05-14T13:36:07;1.70;;;1.60;;
63555;SDS011;49700;48.072;7.800;2023-05-14T13:38:33;2.90;;;1.70;;
63555;SDS011;49700;48.072;7.800;2023-05-14T13:40:59;2.83;;;2.40;;
63555;SDS011;49700;48.072;7.800;2023-05-14T13:43:28;2.47;;;2.27;;
63555;SDS011;49700;48.072;7.800;2023-05-14T13:45:54;2.57;;;2.37;;
63555;SDS011;49700;48.072;7.800;2023-05-14T13:48:20;4.03;;;2.77;;
63555;SDS011;49700;48.072;7.800;2023-05-14T13:50:45;2.70;;;2.50;;
63555;SDS011;49700;48.072;7.800;2023-05-14T13:53:11;3.60;;;1.93;;
63555;SDS011;49700;48.072;7.800;2023-05-14T13:55:36;1.93;;;1.83;;
63555;SDS011;49700;48.072;7.800;2023-05-14T13:58:01;1.87;;;1.77;;
63555;SDS011;49700;48.072;7.800;2023-05-14T14:00:27;2.23;;;2.03;;
63555;SDS011;49700;48.072;7.800;2023-05-14T14:02:52;2.27;;;2.03;;
63555;SDS011;49700;48.072;7.800;2023-05-14T14:05:18;2.47;;;2.27;;
63555;SDS011;49700;48.072;7.800;2023-05-14T14:07:43;2.30;;;1.53;;
63555;SDS011;49700;48.072;7.800;2023-05-14T14:10:09;1.77;;;1.63;;
63555;SDS011;49700;48.072;7.800;2023-05-14T14:12:34;2.30;;;2.10;;
63555;SDS011;49700;48.072;7.800;2023-05-14T14:15:00;1.97;;;1.77;;
63555;SDS011;49700;48.072;7.800;2023-05-14T14:17:27;1.67;;;1.57;;
63555;SDS011;49700;48.072;7.800;2023-05-14T14:19:52;1.70;;;1.60;;
63555;SDS011;49700;48.072;7.800;2023-05-14T14:22:18;1.83;;;1.30;;
63555;SDS011;49700;48.072;7.800;2023-05-14T14:24:43;1.60;;;1.40;;
63555;SDS011;49700;48.072;7.800;2023-05-14T14:27:09;1.57;;;1.40;;
63555;SDS011;49700;48.072;7.800;2023-05-14T14:29:35;1.43;;;1.33;;
63555;SDS011;49700;48.072;7.800;2023-05-14T14:32:01;2.13;;;1.70;;
63555;SDS011;49700;48.072;7.800;2023-05-14T14:34:26;2.60;;;1.90;;
63555;SDS011;49700;48.072;7.800;2023-05-14T14:36:52;1.80;;;1.60;;
63555;SDS011;49700;48.072;7.800;2023-05-14T14:39:17;1.87;;;1.77;;
63555;SDS011;49700;48.072;7.800;2023-05-14T14:41:43;2.30;;;2.07;;
63555;SDS011;49700;48.072;7.800;2023-05-14T14:44:08;1.97;;;1.47;;
63555;SDS011;49700;48.072;7.800;2023-05-14T14:46:34;1.90;;;1.67;;